sensor_id;sensor_type;location;lat;lon;timestamp;P1;durP1;ratioP1;P2;durP2;ratioP2
8871;SDS011;4472;52.092;9.820;2023-05-09T00:02:35;4.70;;;2.90;;
8871;SDS011;4472;52.092;9.820;2023-05-09T00:05:22;3.23;;;2.87;;
8871;SDS011;4472;52.092;9.820;2023-05-09T00:08:10;5.73;;;2.80;;
8871;SDS011;4472;52.092;9.820;2023-05-09T00:10:57;2.87;;;2.67;;
8871;SDS011;4472;52.092;9.820;2023-05-09T00:13:45;7.33;;;2.77;;
8871;SDS011;4472;52.092;9.820;2023-05-09T00:16:33;3.13;;;2.90;;
8871;SDS011;4472;52.092;9.820;2023-05-09T00:19:21;4.03;;;3.30;;
8871;SDS011;4472;52.092;9.820;2023-05-09T00:22:08;3.50;;;3.20;;
8871;SDS011;4472;52.092;9.820;2023-05-09T00:24:57;4.97;;;3.10;;
8871;SDS011;4472;52.092;9.820;2023-05-09T00:27:44;3.60;;;3.30;;
8871;SDS011;4472;52.092;9.820;2023-05-09T00:30:32;3.10;;;2.80;;
8871;SDS011;4472;52.092;9.820;2023-05-09T00:33:20;3.70;;;3.40;;
8871;SDS011;4472;52.092;9.820;2023-05-09T00:36:11;3.10;;;2.90;;
8871;SDS011;4472;52.092;9.820;2023-05-09T00:38:58;3.43;;;2.80;;
8871;SDS011;4472;52.092;9.820;2023-05-09T00:41:45;3.67;;;2.80;;
8871;SDS011;4472;52.092;9.820;2023-05-09T00:44:32;3.60;;;3.10;;
8871;SDS011;4472;52.092;9.820;2023-05-09T00:47:21;4.93;;;2.97;;
8871;SDS011;4472;52.092;9.820;2023-05-09T00:50:09;6.37;;;3.00;;
8871;SDS011;4472;52.092;9.820;2023-05-09T00:52:57;5.13;;;3.13;;
8871;SDS011;4472;52.092;9.820;2023-05-09T00:55:44;4.07;;;3.20;;
8871;SDS011;4472;52.092;9.820;2023-05-09T00:58:31;3.20;;;2.90;;
8871;SDS011;4472;52.092;9.820;2023-05-09T01:01:19;3.20;;;2.90;;
8871;SDS011;4472;52.092;9.820;2023-05-09T01:04:08;4.63;;;3.20;;
8871;SDS011;4472;52.092;9.820;2023-05-09T01:06:57;3.43;;;3.13;;
8871;SDS011;4472;52.092;9.820;2023-05-09T01:09:49;5.27;;;3.00;;
8871;SDS011;4472;52.092;9.820;2023-05-09T01:12:46;3.20;;;2.87;;
8871;SDS011;4472;52.092;9.820;2023-05-09T01:15:36;3.77;;;3.13;;
8871;SDS011;4472;52.092;9.820;2023-05-09T01:18:27;3.57;;;3.27;;
8871;SDS011;4472;52.092;9.820;2023-05-09T01:21:19;2.80;;;2.60;;
8871;SDS011;4472;52.092;9.820;2023-05-09T01:27:36;3.87;;;3.13;;
8871;SDS011;4472;52.092;9.820;2023-05-09T01:30:30;3.83;;;3.50;;
8871;SDS011;4472;52.092;9.820;2023-05-09T01:33:21;3.73;;;3.23;;
8871;SDS011;4472;52.092;9.820;2023-05-09T01:36:11;4.03;;;3.20;;
8871;SDS011;4472;52.092;9.820;2023-05-09T01:39:02;3.37;;;2.97;;
8871;SDS011;4472;52.092;9.820;2023-05-09T01:41:51;5.07;;;3.17;;
8871;SDS011;4472;52.092;9.820;2023-05-09T01:44:41;5.07;;;3.30;;
8871;SDS011;4472;52.092;9.820;2023-05-09T01:47:31;5.67;;;3.17;;
8871;SDS011;4472;52.092;9.820;2023-05-09T01:50:19;3.47;;;3.17;;
8871;SDS011;4472;52.092;9.820;2023-05-09T01:53:07;3.77;;;3.40;;
8871;SDS011;4472;52.092;9.820;2023-05-09T01:55:57;3.73;;;3.37;;
8871;SDS011;4472;52.092;9.820;2023-05-09T01:58:45;4.33;;;3.37;;
8871;SDS011;4472;52.092;9.820;2023-05-09T02:01:34;5.97;;;3.30;;
8871;SDS011;4472;52.092;9.820;2023-05-09T02:04:23;6.10;;;3.33;;
8871;SDS011;4472;52.092;9.820;2023-05-09T02:07:12;6.03;;;3.43;;
8871;SDS011;4472;52.092;9.820;2023-05-09T02:10:00;5.63;;;3.40;;
8871;SDS011;4472;52.092;9.820;2023-05-09T02:12:49;4.63;;;3.20;;
8871;SDS011;4472;52.092;9.820;2023-05-09T02:15:36;3.90;;;3.50;;
8871;SDS011;4472;52.092;9.820;2023-05-09T02:18:24;4.10;;;3.70;;
8871;SDS011;4472;52.092;9.820;2023-05-09T02:21:13;3.67;;;3.10;;
8871;SDS011;4472;52.092;9.820;2023-05-09T02:24:00;6.57;;;3.30;;
8871;SDS011;4472;52.092;9.820;2023-05-09T02:26:47;3.60;;;3.30;;
8871;SDS011;4472;52.092;9.820;2023-05-09T02:29:36;4.43;;;3.43;;
8871;SDS011;4472;52.092;9.820;2023-05-09T02:32:28;5.17;;;3.20;;
8871;SDS011;4472;52.092;9.820;2023-05-09T02:35:17;6.50;;;3.30;;
8871;SDS011;4472;52.092;9.820;2023-05-09T02:38:08;4.23;;;3.43;;
8871;SDS011;4472;52.092;9.820;2023-05-09T02:40:56;4.67;;;3.50;;
8871;SDS011;4472;52.092;9.820;2023-05-09T02:43:43;4.53;;;3.50;;
8871;SDS011;4472;52.092;9.820;2023-05-09T02:46:30;4.47;;;3.80;;
8871;SDS011;4472;52.092;9.820;2023-05-09T02:49:17;3.33;;;3.03;;
8871;SDS011;4472;52.092;9.820;2023-05-09T02:52:04;3.50;;;3.20;;
8871;SDS011;4472;52.092;9.820;2023-05-09T02:54:53;4.90;;;3.50;;
8871;SDS011;4472;52.092;9.820;2023-05-09T02:57:40;4.73;;;3.73;;
8871;SDS011;4472;52.092;9.820;2023-05-09T03:00:28;3.73;;;3.37;;
8871;SDS011;4472;52.092;9.820;2023-05-09T03:03:15;3.63;;;3.30;;
8871;SDS011;4472;52.092;9.820;2023-05-09T03:06:03;6.07;;;3.47;;
8871;SDS011;4472;52.092;9.820;2023-05-09T03:08:50;5.47;;;3.63;;
8871;SDS011;4472;52.092;9.820;2023-05-09T03:11:39;4.73;;;3.77;;
8871;SDS011;4472;52.092;9.820;2023-05-09T03:14:26;3.70;;;3.40;;
8871;SDS011;4472;52.092;9.820;2023-05-09T03:17:13;4.77;;;3.30;;
8871;SDS011;4472;52.092;9.820;2023-05-09T03:20:01;4.00;;;3.57;;
8871;SDS011;4472;52.092;9.820;2023-05-09T03:22:49;6.97;;;3.73;;
8871;SDS011;4472;52.092;9.820;2023-05-09T03:25:37;5.23;;;3.40;;
8871;SDS011;4472;52.092;9.820;2023-05-09T03:28:26;4.03;;;3.37;;
8871;SDS011;4472;52.092;9.820;2023-05-09T03:31:14;4.27;;;3.87;;
8871;SDS011;4472;52.092;9.820;2023-05-09T03:34:01;3.73;;;3.40;;
8871;SDS011;4472;52.092;9.820;2023-05-09T03:36:48;5.20;;;3.50;;
8871;SDS011;4472;52.092;9.820;2023-05-09T03:39:35;4.13;;;3.53;;
8871;SDS011;4472;52.092;9.820;2023-05-09T03:42:22;4.10;;;3.70;;
8871;SDS011;4472;52.092;9.820;2023-05-09T03:45:11;4.47;;;3.67;;
8871;SDS011;4472;52.092;9.820;2023-05-09T03:47:58;7.73;;;4.20;;
8871;SDS011;4472;52.092;9.820;2023-05-09T03:50:45;3.83;;;3.33;;
8871;SDS011;4472;52.092;9.820;2023-05-09T03:53:32;3.63;;;3.30;;
8871;SDS011;4472;52.092;9.820;2023-05-09T03:56:20;4.60;;;3.50;;
8871;SDS011;4472;52.092;9.820;2023-05-09T03:59:07;4.43;;;4.03;;
8871;SDS011;4472;52.092;9.820;2023-05-09T04:01:55;12.93;;;3.80;;
8871;SDS011;4472;52.092;9.820;2023-05-09T04:04:42;5.27;;;3.30;;
8871;SDS011;4472;52.092;9.820;2023-05-09T04:07:31;4.10;;;3.33;;
8871;SDS011;4472;52.092;9.820;2023-05-09T04:10:18;3.90;;;3.60;;
8871;SDS011;4472;52.092;9.820;2023-05-09T04:13:06;4.13;;;3.33;;
8871;SDS011;4472;52.092;9.820;2023-05-09T04:15:53;5.43;;;3.40;;
8871;SDS011;4472;52.092;9.820;2023-05-09T04:18:42;7.13;;;3.67;;
8871;SDS011;4472;52.092;9.820;2023-05-09T04:21:29;5.17;;;3.97;;
8871;SDS011;4472;52.092;9.820;2023-05-09T04:24:17;5.13;;;4.20;;
8871;SDS011;4472;52.092;9.820;2023-05-09T04:27:04;4.00;;;3.63;;
8871;SDS011;4472;52.092;9.820;2023-05-09T04:29:52;5.37;;;3.67;;
8871;SDS011;4472;52.092;9.820;2023-05-09T04:32:42;4.87;;;3.90;;
8871;SDS011;4472;52.092;9.820;2023-05-09T04:35:31;4.00;;;3.70;;
8871;SDS011;4472;52.092;9.820;2023-05-09T04:38:19;3.80;;;3.50;;
8871;SDS011;4472;52.092;9.820;2023-05-09T04:41:07;5.57;;;3.80;;
8871;SDS011;4472;52.092;9.820;2023-05-09T04:43:54;4.57;;;3.80;;
8871;SDS011;4472;52.092;9.820;2023-05-09T04:46:41;3.87;;;3.50;;
8871;SDS011;4472;52.092;9.820;2023-05-09T04:49:29;5.13;;;3.70;;
8871;SDS011;4472;52.092;9.820;2023-05-09T04:52:18;4.77;;;3.80;;
8871;SDS011;4472;52.092;9.820;2023-05-09T04:55:05;4.47;;;3.30;;
8871;SDS011;4472;52.092;9.820;2023-05-09T04:57:53;4.03;;;3.63;;
8871;SDS011;4472;52.092;9.820;2023-05-09T05:00:40;8.20;;;3.60;;
8871;SDS011;4472;52.092;9.820;2023-05-09T05:03:27;4.23;;;3.63;;
8871;SDS011;4472;52.092;9.820;2023-05-09T05:06:14;3.70;;;3.40;;
8871;SDS011;4472;52.092;9.820;2023-05-09T05:09:03;3.43;;;3.20;;
8871;SDS011;4472;52.092;9.820;2023-05-09T05:11:50;3.97;;;3.67;;
8871;SDS011;4472;52.092;9.820;2023-05-09T05:14:37;4.47;;;3.43;;
8871;SDS011;4472;52.092;9.820;2023-05-09T05:17:24;4.20;;;3.67;;
8871;SDS011;4472;52.092;9.820;2023-05-09T05:20:13;5.70;;;3.50;;
8871;SDS011;4472;52.092;9.820;2023-05-09T05:23:00;4.30;;;3.50;;
8871;SDS011;4472;52.092;9.820;2023-05-09T05:25:49;3.77;;;3.47;;
8871;SDS011;4472;52.092;9.820;2023-05-09T05:28:37;3.90;;;3.60;;
8871;SDS011;4472;52.092;9.820;2023-05-09T05:31:24;4.10;;;3.50;;
8871;SDS011;4472;52.092;9.820;2023-05-09T05:34:11;3.30;;;3.00;;
8871;SDS011;4472;52.092;9.820;2023-05-09T05:37:00;4.83;;;3.10;;
8871;SDS011;4472;52.092;9.820;2023-05-09T05:39:47;3.50;;;3.20;;
8871;SDS011;4472;52.092;9.820;2023-05-09T05:42:37;3.60;;;3.23;;
8871;SDS011;4472;52.092;9.820;2023-05-09T05:45:25;3.57;;;3.27;;
8871;SDS011;4472;52.092;9.820;2023-05-09T05:48:13;5.90;;;3.97;;
8871;SDS011;4472;52.092;9.820;2023-05-09T05:51:01;7.73;;;4.77;;
8871;SDS011;4472;52.092;9.820;2023-05-09T05:53:48;6.43;;;4.47;;
8871;SDS011;4472;52.092;9.820;2023-05-09T05:56:35;3.63;;;3.33;;
8871;SDS011;4472;52.092;9.820;2023-05-09T05:59:23;4.03;;;3.60;;
8871;SDS011;4472;52.092;9.820;2023-05-09T06:02:10;4.40;;;4.00;;
8871;SDS011;4472;52.092;9.820;2023-05-09T06:04:58;3.90;;;3.50;;
8871;SDS011;4472;52.092;9.820;2023-05-09T06:07:45;4.27;;;3.37;;
8871;SDS011;4472;52.092;9.820;2023-05-09T06:10:32;3.53;;;3.23;;
8871;SDS011;4472;52.092;9.820;2023-05-09T06:13:19;4.83;;;3.57;;
8871;SDS011;4472;52.092;9.820;2023-05-09T06:16:08;3.40;;;3.10;;
8871;SDS011;4472;52.092;9.820;2023-05-09T06:18:55;3.90;;;3.60;;
8871;SDS011;4472;52.092;9.820;2023-05-09T06:21:42;3.83;;;3.43;;
8871;SDS011;4472;52.092;9.820;2023-05-09T06:24:29;3.60;;;3.30;;
8871;SDS011;4472;52.092;9.820;2023-05-09T06:27:17;3.80;;;3.40;;
8871;SDS011;4472;52.092;9.820;2023-05-09T06:30:04;3.43;;;3.10;;
8871;SDS011;4472;52.092;9.820;2023-05-09T06:32:54;4.20;;;3.80;;
8871;SDS011;4472;52.092;9.820;2023-05-09T06:35:42;4.63;;;4.03;;
8871;SDS011;4472;52.092;9.820;2023-05-09T06:38:29;4.20;;;3.90;;
8871;SDS011;4472;52.092;9.820;2023-05-09T06:41:16;3.77;;;3.40;;
8871;SDS011;4472;52.092;9.820;2023-05-09T06:44:03;4.40;;;3.30;;
8871;SDS011;4472;52.092;9.820;2023-05-09T06:46:50;3.60;;;3.30;;
8871;SDS011;4472;52.092;9.820;2023-05-09T06:49:39;3.20;;;3.00;;
8871;SDS011;4472;52.092;9.820;2023-05-09T06:52:27;3.73;;;3.40;;
8871;SDS011;4472;52.092;9.820;2023-05-09T06:55:14;3.40;;;3.10;;
8871;SDS011;4472;52.092;9.820;2023-05-09T06:58:01;3.60;;;3.30;;
8871;SDS011;4472;52.092;9.820;2023-05-09T07:00:49;3.90;;;3.60;;
8871;SDS011;4472;52.092;9.820;2023-05-09T07:03:36;4.17;;;3.70;;
8871;SDS011;4472;52.092;9.820;2023-05-09T07:06:25;4.20;;;3.67;;
8871;SDS011;4472;52.092;9.820;2023-05-09T07:09:12;5.93;;;4.00;;
8871;SDS011;4472;52.092;9.820;2023-05-09T07:12:04;3.63;;;3.33;;
8871;SDS011;4472;52.092;9.820;2023-05-09T07:14:52;4.57;;;3.73;;
8871;SDS011;4472;52.092;9.820;2023-05-09T07:17:39;4.30;;;3.90;;
8871;SDS011;4472;52.092;9.820;2023-05-09T07:20:26;4.40;;;3.80;;
8871;SDS011;4472;52.092;9.820;2023-05-09T07:23:15;3.80;;;3.47;;
8871;SDS011;4472;52.092;9.820;2023-05-09T07:26:02;5.60;;;4.00;;
8871;SDS011;4472;52.092;9.820;2023-05-09T07:28:49;4.77;;;3.90;;
8871;SDS011;4472;52.092;9.820;2023-05-09T07:31:36;3.80;;;3.50;;
8871;SDS011;4472;52.092;9.820;2023-05-09T07:34:23;3.90;;;3.60;;
8871;SDS011;4472;52.092;9.820;2023-05-09T07:37:10;4.17;;;3.70;;
8871;SDS011;4472;52.092;9.820;2023-05-09T07:39:59;4.87;;;3.67;;
8871;SDS011;4472;52.092;9.820;2023-05-09T07:42:47;4.27;;;3.87;;
8871;SDS011;4472;52.092;9.820;2023-05-09T07:45:35;4.00;;;3.70;;
8871;SDS011;4472;52.092;9.820;2023-05-09T07:48:23;4.13;;;3.63;;
8871;SDS011;4472;52.092;9.820;2023-05-09T07:51:10;4.60;;;4.20;;
8871;SDS011;4472;52.092;9.820;2023-05-09T07:53:57;3.60;;;3.33;;
8871;SDS011;4472;52.092;9.820;2023-05-09T07:56:46;4.00;;;3.70;;
8871;SDS011;4472;52.092;9.820;2023-05-09T07:59:33;3.53;;;3.33;;
8871;SDS011;4472;52.092;9.820;2023-05-09T08:02:20;4.07;;;3.77;;
8871;SDS011;4472;52.092;9.820;2023-05-09T08:05:08;4.23;;;3.77;;
8871;SDS011;4472;52.092;9.820;2023-05-09T08:07:55;3.60;;;3.30;;
8871;SDS011;4472;52.092;9.820;2023-05-09T08:10:42;4.90;;;3.80;;
8871;SDS011;4472;52.092;9.820;2023-05-09T08:13:31;3.87;;;3.50;;
8871;SDS011;4472;52.092;9.820;2023-05-09T08:16:18;5.50;;;4.00;;
8871;SDS011;4472;52.092;9.820;2023-05-09T08:19:05;3.67;;;3.37;;
8871;SDS011;4472;52.092;9.820;2023-05-09T08:21:52;4.20;;;3.60;;
8871;SDS011;4472;52.092;9.820;2023-05-09T08:24:40;4.10;;;3.80;;
8871;SDS011;4472;52.092;9.820;2023-05-09T08:27:27;6.17;;;3.80;;
8871;SDS011;4472;52.092;9.820;2023-05-09T08:30:16;3.07;;;2.87;;
8871;SDS011;4472;52.092;9.820;2023-05-09T08:33:04;6.37;;;4.10;;
8871;SDS011;4472;52.092;9.820;2023-05-09T08:35:51;4.17;;;3.77;;
8871;SDS011;4472;52.092;9.820;2023-05-09T08:38:39;4.23;;;3.93;;
8871;SDS011;4472;52.092;9.820;2023-05-09T08:41:26;4.90;;;4.40;;
8871;SDS011;4472;52.092;9.820;2023-05-09T08:44:14;4.70;;;4.30;;
8871;SDS011;4472;52.092;9.820;2023-05-09T08:47:03;5.30;;;4.80;;
8871;SDS011;4472;52.092;9.820;2023-05-09T08:49:50;3.87;;;3.57;;
8871;SDS011;4472;52.092;9.820;2023-05-09T08:52:38;10.57;;;4.73;;
8871;SDS011;4472;52.092;9.820;2023-05-09T08:55:25;4.30;;;3.90;;
8871;SDS011;4472;52.092;9.820;2023-05-09T08:58:13;4.60;;;4.03;;
8871;SDS011;4472;52.092;9.820;2023-05-09T09:01:04;5.03;;;4.53;;
8871;SDS011;4472;52.092;9.820;2023-05-09T09:03:53;5.73;;;4.87;;
8871;SDS011;4472;52.092;9.820;2023-05-09T09:06:41;4.47;;;4.07;;
8871;SDS011;4472;52.092;9.820;2023-05-09T09:09:28;5.13;;;4.60;;
8871;SDS011;4472;52.092;9.820;2023-05-09T09:12:16;5.53;;;5.03;;
8871;SDS011;4472;52.092;9.820;2023-05-09T09:15:04;5.40;;;4.67;;
8871;SDS011;4472;52.092;9.820;2023-05-09T09:17:54;7.30;;;6.10;;
8871;SDS011;4472;52.092;9.820;2023-05-09T09:20:49;5.50;;;4.60;;
8871;SDS011;4472;52.092;9.820;2023-05-09T09:23:37;7.83;;;4.57;;
8871;SDS011;4472;52.092;9.820;2023-05-09T09:26:25;5.40;;;5.00;;
8871;SDS011;4472;52.092;9.820;2023-05-09T09:29:16;4.57;;;4.17;;
8871;SDS011;4472;52.092;9.820;2023-05-09T09:32:04;5.33;;;4.83;;
8871;SDS011;4472;52.092;9.820;2023-05-09T09:34:52;6.47;;;5.40;;
8871;SDS011;4472;52.092;9.820;2023-05-09T09:37:55;5.47;;;4.90;;
8871;SDS011;4472;52.092;9.820;2023-05-09T09:40:53;6.53;;;5.93;;
8871;SDS011;4472;52.092;9.820;2023-05-09T09:43:44;6.10;;;5.27;;
8871;SDS011;4472;52.092;9.820;2023-05-09T09:46:39;5.93;;;5.10;;
8871;SDS011;4472;52.092;9.820;2023-05-09T09:49:26;6.20;;;5.60;;
8871;SDS011;4472;52.092;9.820;2023-05-09T09:52:21;4.47;;;4.07;;
8871;SDS011;4472;52.092;9.820;2023-05-09T09:55:10;6.13;;;5.40;;
8871;SDS011;4472;52.092;9.820;2023-05-09T09:57:58;5.93;;;5.13;;
8871;SDS011;4472;52.092;9.820;2023-05-09T10:00:45;5.07;;;4.57;;
8871;SDS011;4472;52.092;9.820;2023-05-09T10:03:35;7.47;;;5.43;;
8871;SDS011;4472;52.092;9.820;2023-05-09T10:06:23;6.60;;;5.73;;
8871;SDS011;4472;52.092;9.820;2023-05-09T10:09:10;5.80;;;5.20;;
8871;SDS011;4472;52.092;9.820;2023-05-09T10:12:00;5.93;;;5.17;;
8871;SDS011;4472;52.092;9.820;2023-05-09T10:14:48;6.13;;;5.57;;
8871;SDS011;4472;52.092;9.820;2023-05-09T10:17:35;5.70;;;5.20;;
8871;SDS011;4472;52.092;9.820;2023-05-09T10:20:23;6.33;;;5.37;;
8871;SDS011;4472;52.092;9.820;2023-05-09T10:23:11;7.80;;;4.87;;
8871;SDS011;4472;52.092;9.820;2023-05-09T10:26:04;5.87;;;5.33;;
8871;SDS011;4472;52.092;9.820;2023-05-09T10:29:01;5.60;;;5.00;;
8871;SDS011;4472;52.092;9.820;2023-05-09T10:31:55;5.87;;;5.30;;
8871;SDS011;4472;52.092;9.820;2023-05-09T10:34:48;8.20;;;6.10;;
8871;SDS011;4472;52.092;9.820;2023-05-09T10:37:35;6.70;;;6.10;;
8871;SDS011;4472;52.092;9.820;2023-05-09T10:40:23;5.70;;;5.23;;
8871;SDS011;4472;52.092;9.820;2023-05-09T10:43:12;5.83;;;5.00;;
8871;SDS011;4472;52.092;9.820;2023-05-09T10:46:01;5.57;;;5.10;;
8871;SDS011;4472;52.092;9.820;2023-05-09T10:48:48;8.23;;;5.30;;
8871;SDS011;4472;52.092;9.820;2023-05-09T10:51:36;5.20;;;4.70;;
8871;SDS011;4472;52.092;9.820;2023-05-09T10:54:24;6.10;;;5.50;;
8871;SDS011;4472;52.092;9.820;2023-05-09T10:57:14;5.40;;;5.00;;
8871;SDS011;4472;52.092;9.820;2023-05-09T11:00:04;5.10;;;4.70;;
8871;SDS011;4472;52.092;9.820;2023-05-09T11:03:06;5.70;;;5.13;;
8871;SDS011;4472;52.092;9.820;2023-05-09T11:05:54;5.67;;;5.17;;
8871;SDS011;4472;52.092;9.820;2023-05-09T11:08:42;8.20;;;5.23;;
8871;SDS011;4472;52.092;9.820;2023-05-09T11:11:30;6.20;;;5.60;;
8871;SDS011;4472;52.092;9.820;2023-05-09T11:14:27;6.37;;;5.03;;
8871;SDS011;4472;52.092;9.820;2023-05-09T11:17:26;4.87;;;4.47;;
8871;SDS011;4472;52.092;9.820;2023-05-09T11:20:15;5.30;;;4.80;;
8871;SDS011;4472;52.092;9.820;2023-05-09T11:23:02;4.50;;;4.10;;
8871;SDS011;4472;52.092;9.820;2023-05-09T11:25:51;6.27;;;5.70;;
8871;SDS011;4472;52.092;9.820;2023-05-09T11:28:39;5.00;;;4.40;;
8871;SDS011;4472;52.092;9.820;2023-05-09T11:31:27;4.60;;;4.20;;
8871;SDS011;4472;52.092;9.820;2023-05-09T11:34:14;4.80;;;4.40;;
8871;SDS011;4472;52.092;9.820;2023-05-09T11:37:07;5.07;;;4.57;;
8871;SDS011;4472;52.092;9.820;2023-05-09T11:39:56;5.33;;;4.77;;
8871;SDS011;4472;52.092;9.820;2023-05-09T11:42:45;5.37;;;4.87;;
8871;SDS011;4472;52.092;9.820;2023-05-09T11:45:32;4.93;;;4.33;;
8871;SDS011;4472;52.092;9.820;2023-05-09T11:48:20;5.27;;;4.80;;
8871;SDS011;4472;52.092;9.820;2023-05-09T11:51:14;5.10;;;4.63;;
8871;SDS011;4472;52.092;9.820;2023-05-09T11:54:04;5.33;;;4.83;;
8871;SDS011;4472;52.092;9.820;2023-05-09T11:56:51;4.73;;;4.40;;
8871;SDS011;4472;52.092;9.820;2023-05-09T11:59:39;5.23;;;4.77;;
8871;SDS011;4472;52.092;9.820;2023-05-09T12:02:26;5.37;;;4.53;;
8871;SDS011;4472;52.092;9.820;2023-05-09T12:05:14;6.77;;;4.87;;
8871;SDS011;4472;52.092;9.820;2023-05-09T12:08:02;6.23;;;3.90;;
8871;SDS011;4472;52.092;9.820;2023-05-09T12:10:51;4.90;;;4.50;;
8871;SDS011;4472;52.092;9.820;2023-05-09T12:13:45;5.07;;;4.67;;
8871;SDS011;4472;52.092;9.820;2023-05-09T12:16:33;5.60;;;5.10;;
8871;SDS011;4472;52.092;9.820;2023-05-09T12:19:21;5.30;;;4.70;;
8871;SDS011;4472;52.092;9.820;2023-05-09T12:22:09;5.47;;;4.97;;
8871;SDS011;4472;52.092;9.820;2023-05-09T12:24:57;4.83;;;4.43;;
8871;SDS011;4472;52.092;9.820;2023-05-09T12:27:48;5.37;;;4.97;;
8871;SDS011;4472;52.092;9.820;2023-05-09T12:30:38;5.33;;;4.83;;
8871;SDS011;4472;52.092;9.820;2023-05-09T12:33:27;5.63;;;5.10;;
8871;SDS011;4472;52.092;9.820;2023-05-09T12:36:15;5.60;;;5.10;;
8871;SDS011;4472;52.092;9.820;2023-05-09T12:39:06;5.53;;;4.40;;
8871;SDS011;4472;52.092;9.820;2023-05-09T12:41:54;5.13;;;4.73;;
8871;SDS011;4472;52.092;9.820;2023-05-09T12:44:43;5.27;;;4.77;;
8871;SDS011;4472;52.092;9.820;2023-05-09T12:47:35;5.17;;;4.77;;
8871;SDS011;4472;52.092;9.820;2023-05-09T12:50:30;5.20;;;4.80;;
8871;SDS011;4472;52.092;9.820;2023-05-09T12:53:22;4.60;;;4.20;;
8871;SDS011;4472;52.092;9.820;2023-05-09T12:56:10;5.30;;;4.80;;
8871;SDS011;4472;52.092;9.820;2023-05-09T12:58:59;5.30;;;4.63;;
8871;SDS011;4472;52.092;9.820;2023-05-09T13:01:51;4.90;;;4.33;;
8871;SDS011;4472;52.092;9.820;2023-05-09T13:04:39;4.70;;;4.37;;
8871;SDS011;4472;52.092;9.820;2023-05-09T13:07:27;4.80;;;4.40;;
8871;SDS011;4472;52.092;9.820;2023-05-09T13:10:17;4.93;;;4.53;;
8871;SDS011;4472;52.092;9.820;2023-05-09T13:13:06;4.87;;;4.47;;
8871;SDS011;4472;52.092;9.820;2023-05-09T13:15:54;5.30;;;4.80;;
8871;SDS011;4472;52.092;9.820;2023-05-09T13:18:43;5.23;;;4.73;;
8871;SDS011;4472;52.092;9.820;2023-05-09T13:21:30;6.90;;;4.63;;
8871;SDS011;4472;52.092;9.820;2023-05-09T13:24:17;5.83;;;5.07;;
8871;SDS011;4472;52.092;9.820;2023-05-09T13:27:04;7.93;;;5.60;;
8871;SDS011;4472;52.092;9.820;2023-05-09T13:29:51;9.83;;;5.40;;
8871;SDS011;4472;52.092;9.820;2023-05-09T13:32:38;6.20;;;5.13;;
8871;SDS011;4472;52.092;9.820;2023-05-09T13:35:27;6.47;;;5.03;;
8871;SDS011;4472;52.092;9.820;2023-05-09T13:38:15;5.23;;;4.83;;
8871;SDS011;4472;52.092;9.820;2023-05-09T13:41:02;6.40;;;5.80;;
8871;SDS011;4472;52.092;9.820;2023-05-09T13:43:49;5.90;;;4.93;;
8871;SDS011;4472;52.092;9.820;2023-05-09T13:46:36;8.37;;;5.37;;
8871;SDS011;4472;52.092;9.820;2023-05-09T13:49:24;7.17;;;5.10;;
8871;SDS011;4472;52.092;9.820;2023-05-09T13:52:14;5.90;;;4.57;;
8871;SDS011;4472;52.092;9.820;2023-05-09T13:55:01;6.63;;;5.17;;
8871;SDS011;4472;52.092;9.820;2023-05-09T13:57:49;5.40;;;4.40;;
8871;SDS011;4472;52.092;9.820;2023-05-09T14:00:36;5.10;;;4.70;;
8871;SDS011;4472;52.092;9.820;2023-05-09T14:03:23;6.47;;;4.93;;
8871;SDS011;4472;52.092;9.820;2023-05-09T14:06:10;4.87;;;4.47;;
8871;SDS011;4472;52.092;9.820;2023-05-09T14:08:59;4.70;;;4.30;;
8871;SDS011;4472;52.092;9.820;2023-05-09T14:11:47;5.53;;;5.03;;
8871;SDS011;4472;52.092;9.820;2023-05-09T14:14:35;6.33;;;4.77;;
8871;SDS011;4472;52.092;9.820;2023-05-09T14:17:23;4.90;;;4.50;;
8871;SDS011;4472;52.092;9.820;2023-05-09T14:20:11;5.00;;;4.60;;
8871;SDS011;4472;52.092;9.820;2023-05-09T14:22:59;6.10;;;4.70;;
8871;SDS011;4472;52.092;9.820;2023-05-09T14:25:48;7.83;;;5.40;;
8871;SDS011;4472;52.092;9.820;2023-05-09T14:28:36;5.53;;;5.07;;
8871;SDS011;4472;52.092;9.820;2023-05-09T14:31:23;7.90;;;5.50;;
8871;SDS011;4472;52.092;9.820;2023-05-09T14:34:11;5.37;;;4.93;;
8871;SDS011;4472;52.092;9.820;2023-05-09T14:36:58;6.60;;;5.60;;
8871;SDS011;4472;52.092;9.820;2023-05-09T14:39:46;8.03;;;5.23;;
8871;SDS011;4472;52.092;9.820;2023-05-09T14:42:35;7.23;;;5.83;;
8871;SDS011;4472;52.092;9.820;2023-05-09T14:45:22;7.27;;;5.63;;
8871;SDS011;4472;52.092;9.820;2023-05-09T14:48:09;5.57;;;5.07;;
8871;SDS011;4472;52.092;9.820;2023-05-09T14:50:57;5.87;;;5.37;;
8871;SDS011;4472;52.092;9.820;2023-05-09T14:53:44;6.63;;;5.30;;
8871;SDS011;4472;52.092;9.820;2023-05-09T14:56:32;6.60;;;5.23;;
8871;SDS011;4472;52.092;9.820;2023-05-09T14:59:20;5.23;;;4.70;;
8871;SDS011;4472;52.092;9.820;2023-05-09T15:02:07;5.70;;;5.17;;
8871;SDS011;4472;52.092;9.820;2023-05-09T15:04:55;5.13;;;4.57;;
8871;SDS011;4472;52.092;9.820;2023-05-09T15:07:42;5.80;;;5.30;;
8871;SDS011;4472;52.092;9.820;2023-05-09T15:10:29;4.70;;;4.30;;
8871;SDS011;4472;52.092;9.820;2023-05-09T15:13:17;5.67;;;4.93;;
8871;SDS011;4472;52.092;9.820;2023-05-09T15:16:05;6.27;;;5.67;;
8871;SDS011;4472;52.092;9.820;2023-05-09T15:18:53;5.80;;;5.20;;
8871;SDS011;4472;52.092;9.820;2023-05-09T15:21:40;7.67;;;5.00;;
8871;SDS011;4472;52.092;9.820;2023-05-09T15:24:28;6.17;;;5.30;;
8871;SDS011;4472;52.092;9.820;2023-05-09T15:27:15;5.37;;;4.90;;
8871;SDS011;4472;52.092;9.820;2023-05-09T15:30:03;5.93;;;4.70;;
8871;SDS011;4472;52.092;9.820;2023-05-09T15:32:52;5.57;;;5.07;;
8871;SDS011;4472;52.092;9.820;2023-05-09T15:35:39;5.60;;;5.10;;
8871;SDS011;4472;52.092;9.820;2023-05-09T15:38:28;5.13;;;4.73;;
8871;SDS011;4472;52.092;9.820;2023-05-09T15:41:15;4.80;;;4.40;;
8871;SDS011;4472;52.092;9.820;2023-05-09T15:44:02;5.47;;;4.97;;
8871;SDS011;4472;52.092;9.820;2023-05-09T15:46:50;7.10;;;5.00;;
8871;SDS011;4472;52.092;9.820;2023-05-09T15:49:39;4.80;;;4.40;;
8871;SDS011;4472;52.092;9.820;2023-05-09T15:52:26;4.67;;;4.37;;
8871;SDS011;4472;52.092;9.820;2023-05-09T15:55:13;4.90;;;4.50;;
8871;SDS011;4472;52.092;9.820;2023-05-09T15:58:00;6.73;;;4.70;;
8871;SDS011;4472;52.092;9.820;2023-05-09T16:00:48;4.50;;;4.20;;
8871;SDS011;4472;52.092;9.820;2023-05-09T16:03:35;5.20;;;4.70;;
8871;SDS011;4472;52.092;9.820;2023-05-09T16:06:24;5.63;;;4.93;;
8871;SDS011;4472;52.092;9.820;2023-05-09T16:09:13;5.63;;;4.80;;
8871;SDS011;4472;52.092;9.820;2023-05-09T16:12:00;4.80;;;4.30;;
8871;SDS011;4472;52.092;9.820;2023-05-09T16:14:47;5.70;;;4.60;;
8871;SDS011;4472;52.092;9.820;2023-05-09T16:17:35;5.67;;;4.40;;
8871;SDS011;4472;52.092;9.820;2023-05-09T16:20:22;5.37;;;4.83;;
8871;SDS011;4472;52.092;9.820;2023-05-09T16:23:11;5.07;;;4.30;;
8871;SDS011;4472;52.092;9.820;2023-05-09T16:25:58;6.03;;;4.83;;
8871;SDS011;4472;52.092;9.820;2023-05-09T16:28:45;5.50;;;4.93;;
8871;SDS011;4472;52.092;9.820;2023-05-09T16:31:32;4.70;;;4.27;;
8871;SDS011;4472;52.092;9.820;2023-05-09T16:34:19;6.80;;;4.73;;
8871;SDS011;4472;52.092;9.820;2023-05-09T16:37:07;5.30;;;4.13;;
8871;SDS011;4472;52.092;9.820;2023-05-09T16:39:55;4.83;;;4.43;;
8871;SDS011;4472;52.092;9.820;2023-05-09T16:42:43;5.00;;;4.50;;
8871;SDS011;4472;52.092;9.820;2023-05-09T16:45:31;4.63;;;4.13;;
8871;SDS011;4472;52.092;9.820;2023-05-09T16:48:18;4.80;;;4.40;;
8871;SDS011;4472;52.092;9.820;2023-05-09T16:51:05;4.87;;;4.47;;
8871;SDS011;4472;52.092;9.820;2023-05-09T16:53:52;5.03;;;4.53;;
8871;SDS011;4472;52.092;9.820;2023-05-09T16:56:41;4.30;;;4.00;;
8871;SDS011;4472;52.092;9.820;2023-05-09T16:59:28;8.63;;;4.50;;
8871;SDS011;4472;52.092;9.820;2023-05-09T17:02:15;5.10;;;4.60;;
8871;SDS011;4472;52.092;9.820;2023-05-09T17:05:02;4.40;;;4.00;;
8871;SDS011;4472;52.092;9.820;2023-05-09T17:07:50;6.57;;;4.50;;
8871;SDS011;4472;52.092;9.820;2023-05-09T17:10:37;4.90;;;4.40;;
8871;SDS011;4472;52.092;9.820;2023-05-09T17:13:26;4.80;;;4.20;;
8871;SDS011;4472;52.092;9.820;2023-05-09T17:16:13;4.30;;;3.90;;
8871;SDS011;4472;52.092;9.820;2023-05-09T17:19:00;4.53;;;4.13;;
8871;SDS011;4472;52.092;9.820;2023-05-09T17:21:47;6.13;;;4.00;;
8871;SDS011;4472;52.092;9.820;2023-05-09T17:24:34;4.30;;;3.83;;
8871;SDS011;4472;52.092;9.820;2023-05-09T17:27:21;4.13;;;3.77;;
8871;SDS011;4472;52.092;9.820;2023-05-09T17:30:10;4.57;;;3.90;;